Time;durP1;ratioP1;P1;durP2;ratioP2;P2;SDS_P1;SDS_P2;PMS_P1;PMS_P2;Temp;Humidity;BMP_temperature;BMP_pressure;BME280_temperature;BME280_humidity;BME280_pressure;Samples;Min_cycle;Max_cycle;Signal;HPM_P1;HPM_P2
2023/01/17 00:02:07;;;;;;;2.45;0.85;;;;;;;1.58;100.00;92778.84;4998352;28;20042;-74
2023/01/17 00:10:10;;;;;;;2.67;0.52;;;;;;;1.49;100.00;92776.88;5002789;28;20050;-73
2023/01/17 00:12:35;;;;;;;1.95;1.00;;;;;;;1.43;100.00;92783.19;4967877;28;20089;-74
2023/01/17 00:15:01;;;;;;;1.58;0.70;;;;;;;1.43;100.00;92788.38;4989441;28;20035;-74
2023/01/17 00:17:28;;;;;;;1.73;0.90;;;;;;;1.41;100.00;92795.66;4998595;28;20042;-74
2023/01/17 01:35:25;;;;;;;0.55;0.55;;;;;;;0.97;100.00;92869.19;5001363;28;20042;-73
2023/01/17 01:37:50;;;;;;;1.50;0.70;;;;;;;0.89;100.00;92877.56;4984232;28;20045;-73
2023/01/17 01:40:17;;;;;;;2.22;0.90;;;;;;;0.85;100.00;92872.91;4982932;28;20050;-74
2023/01/17 01:42:55;;;;;;;1.35;0.38;;;;;;;0.76;100.00;92874.56;4999585;28;20665;-73
2023/01/17 01:45:24;;;;;;;0.65;0.43;;;;;;;0.81;100.00;92873.75;4996553;28;20046;-73
2023/01/17 01:47:56;;;;;;;1.75;0.95;;;;;;;0.85;100.00;92878.09;4994126;28;20046;-72
2023/01/17 01:50:22;;;;;;;1.95;0.70;;;;;;;0.82;100.00;92873.47;5009724;28;20053;-73
2023/01/17 01:52:53;;;;;;;0.65;0.65;;;;;;;0.78;100.00;92872.47;4992025;28;20030;-73
2023/01/17 01:55:27;;;;;;;0.88;0.50;;;;;;;0.74;100.00;92866.28;4975898;28;20113;-73
2023/01/17 01:57:57;;;;;;;1.90;0.60;;;;;;;0.60;100.00;92866.13;5003821;28;20530;-72
2023/01/17 02:00:28;;;;;;;3.53;0.75;;;;;;;0.67;100.00;92876.19;5000402;28;20104;-73
2023/01/17 02:02:58;;;;;;;0.50;0.50;;;;;;;0.54;100.00;92867.22;4975392;28;20034;-73
2023/01/17 02:05:26;;;;;;;1.35;0.63;;;;;;;0.62;100.00;92869.25;4997156;28;20038;-73
2023/01/17 02:08:06;;;;;;;0.60;0.43;;;;;;;0.60;100.00;92870.56;5001971;28;20050;-73
2023/01/17 02:10:34;;;;;;;0.63;0.40;;;;;;;0.62;100.00;92876.25;4967799;28;20038;-73
2023/01/17 02:13:01;;;;;;;0.50;0.50;;;;;;;0.54;100.00;92876.81;4994442;28;20526;-73
2023/01/17 02:15:37;;;;;;;1.52;0.60;;;;;;;0.49;100.00;92873.22;5003658;28;20053;-73
2023/01/17 02:18:47;;;;;;;0.52;0.50;;;;;;;0.42;100.00;92870.19;4991077;28;20101;-73
2023/01/17 02:21:16;;;;;;;2.15;0.63;;;;;;;0.44;100.00;92883.59;4997417;28;20488;-72
2023/01/17 02:24:12;;;;;;;0.57;0.55;;;;;;;0.45;100.00;92885.16;4985398;28;20523;-72
2023/01/17 02:27:07;;;;;;;1.30;0.50;;;;;;;0.38;100.00;92879.50;4973229;28;20053;-74
2023/01/17 02:29:48;;;;;;;1.10;0.60;;;;;;;0.33;100.00;92887.31;5004866;28;20048;-74
2023/01/17 02:32:37;;;;;;;1.05;0.80;;;;;;;0.29;100.00;92883.72;4992274;28;20046;-73
2023/01/17 02:35:22;;;;;;;0.60;0.60;;;;;;;0.28;100.00;92884.75;4976051;28;20139;-73
2023/01/17 02:38:13;;;;;;;1.98;0.68;;;;;;;0.07;100.00;92874.56;5003042;28;20034;-73
2023/01/17 02:40:46;;;;;;;0.82;0.52;;;;;;;0.08;100.00;92876.09;4992306;28;20042;-73
2023/01/17 02:43:14;;;;;;;0.82;0.55;;;;;;;0.03;100.00;92868.38;4996707;28;20101;-72
2023/01/17 02:45:40;;;;;;;1.08;0.50;;;;;;;-0.02;100.00;92876.16;4995524;28;20089;-73
2023/01/17 02:48:09;;;;;;;0.98;0.70;;;;;;;-0.02;100.00;92868.41;5003903;28;20049;-73
2023/01/17 02:50:51;;;;;;;1.10;0.52;;;;;;;-0.09;100.00;92860.94;4999248;28;20172;-73
2023/01/17 02:53:41;;;;;;;0.93;0.50;;;;;;;-0.06;100.00;92865.59;4993357;28;20041;-73
2023/01/17 02:56:19;;;;;;;1.92;0.45;;;;;;;-0.04;100.00;92873.06;4992609;28;20074;-73
2023/01/17 02:59:17;;;;;;;0.45;0.30;;;;;;;-0.08;100.00;92866.88;5004360;28;20038;-73
2023/01/17 03:02:00;;;;;;;0.65;0.57;;;;;;;-0.09;100.00;92870.50;4947470;28;20417;-73
2023/01/17 03:04:50;;;;;;;1.67;0.63;;;;;;;-0.22;100.00;92871.88;4993594;28;20039;-74
2023/01/17 03:07:21;;;;;;;5.43;0.68;;;;;;;-0.30;100.00;92875.78;4990442;28;20046;-73
2023/01/17 03:09:52;;;;;;;0.80;0.35;;;;;;;-0.30;100.00;92880.97;4996800;28;20496;-73
2023/01/17 03:12:19;;;;;;;0.85;0.52;;;;;;;-0.30;100.00;92887.91;4973555;28;20046;-73
2023/01/17 03:14:47;;;;;;;1.60;0.60;;;;;;;-0.33;100.00;92891.81;4987494;28;20104;-73
2023/01/17 03:17:12;;;;;;;2.28;0.60;;;;;;;-0.33;100.00;92886.66;4997757;28;20057;-72
2023/01/17 03:19:38;;;;;;;0.68;0.50;;;;;;;-0.30;100.00;92880.97;5000441;28;20578;-73
2023/01/17 03:22:04;;;;;;;0.57;0.40;;;;;;;-0.37;100.00;92883.81;5000722;28;20052;-74
2023/01/17 03:24:29;;;;;;;2.15;0.50;;;;;;;-0.40;100.00;92891.34;4990181;28;20042;-73
2023/01/17 03:26:55;;;;;;;0.73;0.32;;;;;;;-0.32;100.00;92887.41;4995573;28;20050;-72
2023/01/17 03:29:20;;;;;;;0.50;0.50;;;;;;;-0.27;100.00;92885.59;4988293;28;20149;-73
2023/01/17 03:31:46;;;;;;;0.52;0.50;;;;;;;-0.25;100.00;92888.66;5007712;28;20038;-72
2023/01/17 03:34:11;;;;;;;0.70;0.32;;;;;;;-0.33;100.00;92881.50;5000119;28;20073;-73
2023/01/17 03:36:37;;;;;;;0.65;0.30;;;;;;;-0.22;100.00;92888.13;4995248;28;20039;-73
2023/01/17 03:39:03;;;;;;;0.63;0.50;;;;;;;-0.39;100.00;92887.69;4973857;28;20134;-73
2023/01/17 03:41:28;;;;;;;0.90;0.50;;;;;;;-0.46;100.00;92882.03;5010056;28;20041;-73
2023/01/17 03:43:54;;;;;;;1.42;0.70;;;;;;;-0.32;100.00;92883.03;4987594;28;20043;-73
2023/01/17 03:46:23;;;;;;;1.02;0.35;;;;;;;-0.33;100.00;92886.66;4997644;28;20057;-73
2023/01/17 03:48:49;;;;;;;0.20;0.20;;;;;;;-0.48;100.00;92889.31;4971396;28;20038;-73
2023/01/17 03:51:15;;;;;;;2.05;0.50;;;;;;;-0.30;100.00;92886.13;5003814;28;20057;-73
2023/01/17 03:53:41;;;;;;;2.20;0.60;;;;;;;-0.26;100.00;92891.53;4977216;28;20493;-73
2023/01/17 03:56:07;;;;;;;1.80;0.50;;;;;;;-0.31;100.00;92884.56;4992195;28;20050;-73
2023/01/17 03:58:32;;;;;;;0.40;0.40;;;;;;;-0.34;100.00;92892.84;4996187;28;20096;-73
2023/01/17 04:00:58;;;;;;;0.73;0.50;;;;;;;-0.40;100.00;92888.75;5001247;28;20042;-73
2023/01/17 04:03:23;;;;;;;1.05;0.57;;;;;;;-0.35;100.00;92883.56;4991949;28;20089;-72
2023/01/17 04:05:49;;;;;;;1.33;0.40;;;;;;;-0.45;100.00;92888.78;4985138;28;20049;-72
2023/01/17 04:08:14;;;;;;;0.40;0.35;;;;;;;-0.62;100.00;92889.84;4977048;28;20531;-73
2023/01/17 04:10:40;;;;;;;0.70;0.38;;;;;;;-0.75;100.00;92885.25;4986792;28;20417;-73
2023/01/17 04:13:06;;;;;;;0.52;0.40;;;;;;;-0.93;100.00;92884.03;5001281;28;20049;-73
2023/01/17 04:15:32;;;;;;;1.15;0.38;;;;;;;-1.11;100.00;92875.78;4992291;28;20097;-73
2023/01/17 04:17:58;;;;;;;1.75;0.65;;;;;;;-1.20;100.00;92894.66;5006870;28;20046;-73
2023/01/17 04:20:33;;;;;;;1.08;0.40;;;;;;;-1.52;100.00;92898.25;5004366;28;20042;-72
2023/01/17 04:22:59;;;;;;;0.50;0.50;;;;;;;-1.50;100.00;92893.63;4996112;28;20046;-74
2023/01/17 04:25:25;;;;;;;2.88;0.60;;;;;;;-1.54;100.00;92895.16;4978879;28;20045;-74
2023/01/17 04:27:52;;;;;;;1.17;0.43;;;;;;;-1.67;100.00;92892.06;4978409;28;20065;-74
2023/01/17 04:30:18;;;;;;;0.55;0.35;;;;;;;-1.81;100.00;92896.16;4981502;28;20404;-74
2023/01/17 04:32:43;;;;;;;0.70;0.40;;;;;;;-1.80;100.00;92897.72;5006425;28;20042;-75
2023/01/17 04:35:09;;;;;;;1.38;0.43;;;;;;;-1.89;100.00;92894.13;5003878;28;20046;-74
2023/01/17 04:37:35;;;;;;;1.48;0.38;;;;;;;-2.02;100.00;92885.84;5005179;28;20097;-74
2023/01/17 04:40:02;;;;;;;1.58;0.60;;;;;;;-2.23;100.00;92884.25;4979356;28;20701;-74
2023/01/17 04:42:28;;;;;;;1.55;0.63;;;;;;;-2.23;100.00;92894.56;5010097;28;20092;-73
2023/01/17 04:44:53;;;;;;;0.20;0.20;;;;;;;-2.30;100.00;92900.72;5003334;28;20412;-74
2023/01/17 04:47:19;;;;;;;1.52;0.68;;;;;;;-2.39;100.00;92886.78;4998268;28;20054;-74
2023/01/17 04:49:44;;;;;;;0.70;0.47;;;;;;;-2.43;100.00;92890.88;4992909;28;20046;-74
2023/01/17 04:52:10;;;;;;;1.08;0.52;;;;;;;-2.49;100.00;92891.91;4995490;28;20042;-74
2023/01/17 04:54:36;;;;;;;0.30;0.30;;;;;;;-2.55;100.00;92892.91;5005129;28;20050;-74
2023/01/17 04:57:01;;;;;;;1.25;0.47;;;;;;;-2.66;100.00;92892.88;5005674;28;20096;-74
2023/01/17 04:59:27;;;;;;;0.93;0.73;;;;;;;-1.88;100.00;92890.50;5003167;28;20038;-74
2023/01/17 05:01:52;;;;;;;2.78;0.70;;;;;;;-2.20;100.00;92881.16;4984869;28;20038;-74
2023/01/17 05:04:18;;;;;;;0.80;0.43;;;;;;;-2.33;100.00;92895.28;5005261;28;20053;-73
2023/01/17 05:06:43;;;;;;;0.68;0.45;;;;;;;-2.43;100.00;92896.03;4998307;28;20049;-74
2023/01/17 05:09:10;;;;;;;2.00;0.60;;;;;;;-2.55;100.00;92892.91;4987694;28;20046;-73
2023/01/17 05:11:35;;;;;;;1.20;0.40;;;;;;;-2.61;100.00;92895.44;4994294;28;20046;-73
2023/01/17 05:14:01;;;;;;;2.55;0.65;;;;;;;-2.70;100.00;92896.97;4986317;28;20038;-74
2023/01/17 05:16:26;;;;;;;0.73;0.43;;;;;;;-2.76;100.00;92903.09;5002666;28;20042;-74
2023/01/17 05:18:52;;;;;;;1.60;0.50;;;;;;;-2.78;100.00;92905.16;4998058;28;20038;-74
2023/01/17 05:21:19;;;;;;;1.23;0.57;;;;;;;-2.76;100.00;92913.41;5008087;28;20050;-73
2023/01/17 05:23:44;;;;;;;1.20;0.68;;;;;;;-2.75;100.00;92917.53;5008683;28;20045;-73
2023/01/17 05:26:10;;;;;;;1.13;0.70;;;;;;;-2.52;100.00;92913.00;5006203;28;20104;-74
2023/01/17 05:28:36;;;;;;;1.77;0.45;;;;;;;-2.71;100.00;92910.84;4995278;28;20089;-73
2023/01/17 05:31:01;;;;;;;2.53;0.88;;;;;;;-2.76;100.00;92918.53;4989766;28;20043;-73
2023/01/17 05:33:27;;;;;;;1.65;0.73;;;;;;;-2.78;100.00;92918.03;5002096;28;20037;-74
2023/01/17 05:35:53;;;;;;;1.30;0.60;;;;;;;-2.54;100.00;92930.50;5004037;28;20530;-73
2023/01/17 05:38:18;;;;;;;1.60;0.98;;;;;;;-2.59;100.00;92930.47;4982721;28;20085;-74
2023/01/17 05:40:44;;;;;;;1.92;0.95;;;;;;;-2.71;100.00;92941.75;4996201;28;20196;-73
2023/01/17 05:43:09;;;;;;;1.02;0.60;;;;;;;-2.72;100.00;92929.13;4989380;28;20049;-74
2023/01/17 05:45:35;;;;;;;1.00;0.80;;;;;;;-2.61;100.00;92931.50;4994993;28;20059;-74
2023/01/17 05:48:01;;;;;;;0.63;0.50;;;;;;;-2.45;100.00;92929.00;4992603;28;20043;-74
2023/01/17 05:50:31;;;;;;;0.65;0.60;;;;;;;-2.37;100.00;92936.25;4989143;28;20039;-73
2023/01/17 05:53:02;;;;;;;0.55;0.50;;;;;;;-2.51;100.00;92937.75;4995425;28;20456;-74
2023/01/17 05:55:29;;;;;;;2.72;0.88;;;;;;;-2.21;100.00;92949.16;4988862;28;20057;-72
2023/01/17 05:57:55;;;;;;;3.45;0.90;;;;;;;-2.04;100.00;92944.59;5004566;28;20046;-74
2023/01/17 06:00:22;;;;;;;0.70;0.60;;;;;;;-1.63;100.00;92939.50;4992848;28;20276;-74
2023/01/17 06:02:47;;;;;;;0.80;0.70;;;;;;;-1.49;100.00;92944.19;4992107;28;20092;-74
2023/01/17 06:05:15;;;;;;;2.78;1.10;;;;;;;-1.60;100.00;92940.81;4998382;28;20050;-74
2023/01/17 06:07:45;;;;;;;4.28;1.10;;;;;;;-1.90;100.00;92944.13;5009472;28;20054;-74
2023/01/17 06:10:15;;;;;;;2.63;1.30;;;;;;;-2.06;100.00;92949.22;4972742;28;20038;-73
2023/01/17 06:12:41;;;;;;;3.28;2.17;;;;;;;-1.99;100.00;92942.03;4971427;28;20692;-74
2023/01/17 06:15:08;;;;;;;4.00;0.95;;;;;;;-2.09;100.00;92947.16;4978895;28;20069;-74
2023/01/17 06:17:35;;;;;;;1.17;1.02;;;;;;;-2.35;100.00;92949.63;4993849;28;20049;-74
2023/01/17 06:20:01;;;;;;;2.88;1.00;;;;;;;-2.43;100.00;92944.97;5004093;28;20037;-74
2023/01/17 06:22:26;;;;;;;2.15;0.85;;;;;;;-2.56;100.00;92937.69;4977198;28;20038;-74
2023/01/17 06:24:52;;;;;;;1.17;0.88;;;;;;;-2.63;100.00;92935.34;5002166;28;20061;-74
2023/01/17 06:27:17;;;;;;;2.33;1.00;;;;;;;-2.71;100.00;92931.44;5009629;28;20096;-74
2023/01/17 06:29:43;;;;;;;1.58;0.82;;;;;;;-2.86;100.00;92928.78;4989036;28;20042;-74
2023/01/17 06:32:08;;;;;;;2.00;1.10;;;;;;;-2.80;100.00;92932.97;4990249;28;20512;-74
2023/01/17 06:34:34;;;;;;;3.22;1.25;;;;;;;-2.82;100.00;92924.69;4999975;28;20042;-74
2023/01/17 06:36:59;;;;;;;3.15;1.25;;;;;;;-2.91;100.00;92926.22;5010667;28;20534;-73
2023/01/17 06:39:25;;;;;;;4.75;1.38;;;;;;;-2.96;100.00;92932.88;5001264;28;20038;-73
2023/01/17 06:41:50;;;;;;;1.75;1.00;;;;;;;-3.10;100.00;92929.19;5000481;28;20042;-74
2023/01/17 06:44:16;;;;;;;2.63;1.30;;;;;;;-3.14;100.00;92930.69;4996631;28;20033;-75
2023/01/17 06:46:48;;;;;;;3.42;1.60;;;;;;;-3.12;100.00;92931.22;5083633;27;20398;-73
2023/01/17 06:49:14;;;;;;;6.05;1.65;;;;;;;-3.08;100.00;92932.25;5064795;28;20064;-73
2023/01/17 06:51:40;;;;;;;4.28;1.27;;;;;;;-2.97;100.00;92923.59;5059560;28;20048;-71
2023/01/17 06:54:05;;;;;;;2.25;1.25;;;;;;;-3.02;100.00;92928.69;5064104;28;20111;-72
2023/01/17 06:56:32;;;;;;;2.83;1.23;;;;;;;-3.09;100.00;92925.56;5059963;28;20041;-72
2023/01/17 06:58:58;;;;;;;4.78;1.17;;;;;;;-3.16;100.00;92925.00;5066551;28;20037;-70
2023/01/17 07:01:23;;;;;;;3.63;1.40;;;;;;;-3.22;100.00;92920.84;5052081;28;20062;-70
2023/01/17 07:03:51;;;;;;;4.72;1.70;;;;;;;-3.23;100.00;92924.44;5053074;28;20041;-72
2023/01/17 07:06:17;;;;;;;1.98;1.27;;;;;;;-3.27;100.00;92925.97;5060649;28;20502;-73
2023/01/17 07:08:43;;;;;;;2.97;1.30;;;;;;;-3.40;100.00;92920.22;5056169;28;20450;-72
2023/01/17 07:11:09;;;;;;;6.30;1.52;;;;;;;-3.35;100.00;92917.69;5062053;28;20094;-73
2023/01/17 07:13:36;;;;;;;4.40;1.25;;;;;;;-3.33;100.00;92920.78;5062574;28;20044;-72
2023/01/17 07:16:02;;;;;;;5.40;1.52;;;;;;;-3.34;100.00;92915.88;5064059;28;20447;-72
2023/01/17 07:18:29;;;;;;;2.58;1.60;;;;;;;-3.38;100.00;92913.03;5065169;28;20135;-72
2023/01/17 07:20:54;;;;;;;3.75;1.48;;;;;;;-3.33;100.00;92923.34;5057798;28;20074;-72
2023/01/17 07:23:21;;;;;;;6.03;1.65;;;;;;;-3.38;100.00;92925.13;5059426;28;20078;-73
2023/01/17 07:25:55;;;;;;;3.78;1.77;;;;;;;-3.33;100.00;92925.94;5062401;28;20098;-72
2023/01/17 07:28:21;;;;;;;6.00;1.50;;;;;;;-3.32;100.00;92932.63;5062964;28;20041;-72
2023/01/17 07:30:47;;;;;;;5.15;1.90;;;;;;;-3.38;100.00;92928.44;5059258;28;20090;-72
2023/01/17 07:33:13;;;;;;;4.18;1.65;;;;;;;-3.32;100.00;92927.50;5064805;28;20036;-72
2023/01/17 07:35:39;;;;;;;2.15;1.50;;;;;;;-3.24;100.00;92938.34;5057045;28;20044;-72
2023/01/17 07:38:04;;;;;;;3.13;1.60;;;;;;;-3.12;100.00;92936.34;5065838;28;20524;-72
2023/01/17 07:40:30;;;;;;;2.53;1.38;;;;;;;-2.92;100.00;92924.66;5058615;28;20048;-74
2023/01/17 07:43:00;;;;;;;1.70;1.17;;;;;;;-2.76;100.00;92923.69;5057415;28;20041;-71
2023/01/17 07:45:26;;;;;;;1.52;1.13;;;;;;;-2.65;100.00;92915.00;5054702;28;20048;-73
2023/01/17 07:47:56;;;;;;;2.28;1.45;;;;;;;-2.61;100.00;92915.28;5052852;28;20052;-73
2023/01/17 07:50:21;;;;;;;3.03;1.25;;;;;;;-2.59;100.00;92915.78;5061903;28;20546;-70
2023/01/17 07:52:50;;;;;;;4.22;1.48;;;;;;;-2.58;100.00;92908.88;5060191;28;20067;-72
2023/01/17 07:55:16;;;;;;;4.95;1.60;;;;;;;-2.68;100.00;92900.06;5063359;28;21769;-73
2023/01/17 07:57:42;;;;;;;2.45;1.33;;;;;;;-2.63;100.00;92891.56;5045372;28;20041;-74
2023/01/17 08:00:08;;;;;;;4.82;1.90;;;;;;;-2.57;100.00;92874.34;5049523;28;20091;-74
2023/01/17 08:02:33;;;;;;;3.38;1.40;;;;;;;-2.51;100.00;92881.84;5045118;28;20411;-72
2023/01/17 08:04:59;;;;;;;3.58;1.73;;;;;;;-2.45;100.00;92877.50;5050547;28;20036;-72
2023/01/17 08:07:24;;;;;;;4.90;1.40;;;;;;;-2.31;100.00;92882.94;5037221;28;20598;-74
2023/01/17 08:09:50;;;;;;;2.45;1.23;;;;;;;-2.35;100.00;92887.81;5050733;28;20037;-75
2023/01/17 08:12:16;;;;;;;9.30;2.03;;;;;;;-2.31;100.00;92888.88;5048328;28;20033;-75
2023/01/17 08:14:42;;;;;;;4.47;2.00;;;;;;;-2.31;100.00;92883.72;5044892;28;20045;-74
2023/01/17 08:17:15;;;;;;;2.63;1.70;;;;;;;-2.18;100.00;92876.53;5050807;28;20112;-73
2023/01/17 08:19:41;;;;;;;6.10;1.60;;;;;;;-2.12;100.00;92871.13;5048211;28;20052;-74
2023/01/17 08:22:07;;;;;;;5.70;2.20;;;;;;;-1.86;100.00;92872.97;5044175;28;20411;-73
2023/01/17 08:24:32;;;;;;;12.32;3.80;;;;;;;-1.87;100.00;92877.34;5045204;28;20083;-73
2023/01/17 08:26:58;;;;;;;5.70;2.10;;;;;;;-1.61;100.00;92874.78;5048301;28;20033;-73
2023/01/17 08:29:24;;;;;;;4.65;2.13;;;;;;;-1.46;100.00;92879.19;5049037;28;20740;-73
2023/01/17 08:31:49;;;;;;;4.07;2.20;;;;;;;-1.38;100.00;92870.91;5047483;28;20060;-72
2023/01/17 08:34:15;;;;;;;3.55;1.98;;;;;;;-1.48;100.00;92868.34;5045627;28;20118;-73
2023/01/17 08:36:42;;;;;;;3.00;1.80;;;;;;;-1.51;100.00;92866.28;5040652;28;20068;-72
2023/01/17 08:39:08;;;;;;;3.20;1.90;;;;;;;-1.47;100.00;92865.50;5042901;28;20033;-73
2023/01/17 08:41:34;;;;;;;3.47;1.90;;;;;;;-1.38;100.00;92867.56;5035931;28;20044;-73
2023/01/17 08:44:01;;;;;;;4.18;1.55;;;;;;;-1.26;100.00;92861.09;5040413;28;20037;-73
2023/01/17 08:46:27;;;;;;;2.60;1.50;;;;;;;-1.14;100.00;92857.47;5032221;28;20041;-73
2023/01/17 08:49:01;;;;;;;3.42;1.45;;;;;;;-1.06;100.00;92860.28;5044156;28;20044;-72
2023/01/17 08:51:28;;;;;;;3.00;1.40;;;;;;;-0.87;100.00;92863.06;5040599;28;20087;-72
2023/01/17 08:53:55;;;;;;;3.25;1.48;;;;;;;-0.87;100.00;92863.06;5037794;28;20418;-72
2023/01/17 08:56:22;;;;;;;2.00;1.17;;;;;;;-0.78;100.00;92854.78;5049675;28;20045;-72
2023/01/17 08:58:48;;;;;;;1.65;1.23;;;;;;;-0.71;100.00;92860.44;5050057;28;20049;-73
2023/01/17 09:01:14;;;;;;;3.35;1.30;;;;;;;-0.63;100.00;92857.31;5050904;28;20041;-73
2023/01/17 09:03:40;;;;;;;2.83;1.33;;;;;;;-0.55;100.00;92859.38;5048121;28;20069;-72
2023/01/17 09:06:07;;;;;;;2.70;1.30;;;;;;;-0.33;100.00;92866.00;5048891;28;20112;-72
2023/01/17 09:08:33;;;;;;;2.50;1.40;;;;;;;-0.30;100.00;92875.78;5050478;28;20474;-72
2023/01/17 09:11:11;;;;;;;2.60;1.40;;;;;;;-0.23;100.00;92871.09;5045607;28;20052;-72
2023/01/17 09:13:37;;;;;;;5.40;1.95;;;;;;;-0.14;100.00;92863.56;5046316;28;20052;-73
2023/01/17 09:16:04;;;;;;;7.05;1.85;;;;;;;-0.07;100.00;92858.06;5048202;28;20037;-73
2023/01/17 09:18:30;;;;;;;4.22;1.38;;;;;;;-0.01;100.00;92859.59;5051287;28;20167;-72
2023/01/17 09:20:58;;;;;;;2.45;1.33;;;;;;;0.08;100.00;92863.16;5049955;28;20041;-72
2023/01/17 09:23:28;;;;;;;3.35;1.17;;;;;;;0.26;100.00;92866.13;5049321;28;20120;-72
2023/01/17 09:25:58;;;;;;;3.22;1.50;;;;;;;0.29;100.00;92860.44;5042019;28;20166;-73
2023/01/17 09:28:25;;;;;;;6.95;1.10;;;;;;;0.42;100.00;92870.19;5038664;28;20056;-73
2023/01/17 09:30:52;;;;;;;1.38;0.95;;;;;;;0.58;100.00;92863.06;5040824;28;20048;-73
2023/01/17 09:33:18;;;;;;;5.47;1.10;;;;;;;0.77;100.00;92859.81;5041678;28;20065;-72
2023/01/17 09:35:44;;;;;;;2.65;1.15;;;;;;;0.82;100.00;92852.75;5039633;28;20044;-72
2023/01/17 09:38:11;;;;;;;6.30;1.58;;;;;;;0.86;100.00;92852.97;5035857;28;20400;-73
2023/01/17 09:40:42;;;;;;;3.67;1.30;;;;;;;0.88;100.00;92834.56;5043050;28;20041;-73
2023/01/17 09:43:22;;;;;;;7.22;1.10;;;;;;;1.05;100.00;92834.94;5040578;28;20038;-72
2023/01/17 09:45:48;;;;;;;3.88;1.10;;;;;;;1.16;100.00;92836.34;5041588;28;20052;-73
2023/01/17 09:48:23;;;;;;;5.60;1.30;;;;;;;1.25;100.00;92828.75;5043675;28;20041;-75
2023/01/17 09:51:06;;;;;;;2.28;1.55;;;;;;;1.20;100.00;92821.78;5036954;28;20037;-73
2023/01/17 09:53:36;;;;;;;2.58;1.30;;;;;;;1.52;100.00;92817.81;5047820;28;20136;-73
2023/01/17 09:56:08;;;;;;;1.90;1.15;;;;;;;2.00;100.00;92803.19;5041876;28;20106;-74
2023/01/17 09:58:45;;;;;;;2.97;1.20;;;;;;;2.86;100.00;92795.03;5047915;28;20040;-76
2023/01/17 10:01:35;;;;;;;2.75;1.33;;;;;;;4.64;90.02;92788.19;5041609;28;20044;-76
2023/01/17 10:04:22;;;;;;;2.95;1.73;;;;;;;5.24;81.51;92775.69;5038731;28;20117;-75
2023/01/17 10:07:11;;;;;;;6.97;2.10;;;;;;;4.95;82.23;92769.16;5038074;28;20075;-75
2023/01/17 10:09:51;;;;;;;4.32;1.25;;;;;;;5.11;74.82;92750.50;5045457;28;20090;-76
2023/01/17 10:12:28;;;;;;;5.75;1.48;;;;;;;5.63;78.38;92755.84;5040994;28;20040;-76
2023/01/17 10:15:15;;;;;;;8.90;1.25;;;;;;;6.63;70.19;92742.88;5040016;28;20072;-76
2023/01/17 10:18:00;;;;;;;3.95;1.13;;;;;;;5.78;68.53;92748.63;5039805;28;20102;-75
2023/01/17 10:20:50;;;;;;;1.80;1.00;;;;;;;6.04;68.30;92748.66;5039519;28;20131;-76
2023/01/17 10:23:30;;;;;;;1.42;0.90;;;;;;;6.68;65.03;92734.09;5040608;28;20110;-76
2023/01/17 10:26:13;;;;;;;2.13;1.00;;;;;;;6.92;60.77;92733.56;5039740;28;20116;-75
2023/01/17 10:28:47;;;;;;;1.25;0.90;;;;;;;7.55;56.42;92728.44;5039236;28;20435;-76
2023/01/17 10:31:21;;;;;;;0.93;0.65;;;;;;;8.14;51.57;92730.16;5037583;28;20091;-76
2023/01/17 10:33:51;;;;;;;1.33;0.80;;;;;;;8.77;55.64;92731.16;5039759;28;20495;-76
2023/01/17 10:36:33;;;;;;;1.23;0.60;;;;;;;8.61;51.62;92733.63;5039643;28;20123;-76
2023/01/17 10:39:14;;;;;;;2.70;1.00;;;;;;;8.00;54.81;92732.28;5039149;28;20580;-75
2023/01/17 10:41:45;;;;;;;1.55;0.80;;;;;;;7.63;56.15;92729.50;5036941;28;20045;-76
2023/01/17 10:44:34;;;;;;;2.95;0.93;;;;;;;7.72;57.08;92722.34;5038118;28;20037;-76
2023/01/17 10:47:11;;;;;;;1.00;0.77;;;;;;;7.44;52.91;92715.00;5037845;28;20048;-76
2023/01/17 10:49:43;;;;;;;1.48;0.55;;;;;;;6.16;60.53;92708.88;5038630;28;20041;-77
2023/01/17 10:52:16;;;;;;;0.70;0.68;;;;;;;5.43;63.55;92725.09;5040616;28;20065;-75
2023/01/17 10:55:07;;;;;;;4.00;1.00;;;;;;;5.46;66.57;92714.84;5043737;28;20037;-75
2023/01/17 10:57:44;;;;;;;1.90;0.90;;;;;;;5.47;63.38;92707.78;5038727;28;20491;-76
2023/01/17 11:00:19;;;;;;;7.20;1.35;;;;;;;4.89;69.20;92700.00;5039794;28;20037;-75
2023/01/17 11:02:48;;;;;;;;;;;;;;;5.03;67.69;92702.50;5041655;28;20159;-75
2023/01/17 11:05:23;;;;;;;3.45;0.90;;;;;;;4.42;72.25;92686.63;5040219;28;19951;-76
2023/01/17 11:08:01;;;;;;;10.25;1.88;;;;;;;4.29;71.55;92694.22;5041621;28;20037;-76
2023/01/17 11:10:40;;;;;;;4.22;0.70;;;;;;;4.13;70.05;92682.66;5036463;28;20033;-76
2023/01/17 11:13:23;;;;;;;15.90;1.05;;;;;;;4.21;70.17;92673.34;5039938;28;20043;-76
2023/01/17 11:15:56;;;;;;;0.65;0.65;;;;;;;4.12;72.20;92660.31;5040497;28;20037;-76
2023/01/17 11:18:26;;;;;;;4.00;0.82;;;;;;;4.13;73.21;92657.41;5040208;28;20567;-76
2023/01/17 11:20:53;;;;;;;1.27;1.00;;;;;;;3.73;73.92;92653.94;5037337;28;20559;-78
2023/01/17 11:23:28;;;;;;;1.95;0.90;;;;;;;3.73;76.26;92661.75;5044507;28;20033;-75
2023/01/17 11:26:03;;;;;;;1.17;0.90;;;;;;;3.43;77.15;92656.97;5045615;28;20045;-77
2023/01/17 11:28:31;;;;;;;2.60;1.00;;;;;;;3.32;77.95;92657.47;5041251;28;20048;-76
2023/01/17 11:31:02;;;;;;;0.93;0.63;;;;;;;3.42;76.46;92655.44;5045540;28;20037;-76
2023/01/17 11:34:04;;;;;;;7.60;1.02;;;;;;;3.29;79.45;92646.59;5053369;28;20040;-75
2023/01/17 11:36:30;;;;;;;3.25;0.90;;;;;;;3.21;78.42;92654.34;5039973;28;20464;-76
2023/01/17 11:39:05;;;;;;;2.63;0.73;;;;;;;3.10;80.71;92651.97;5042842;28;20721;-76
2023/01/17 11:41:39;;;;;;;3.28;1.23;;;;;;;3.23;83.97;92647.78;5049676;28;20041;-75
2023/01/17 11:44:25;;;;;;;2.90;1.15;;;;;;;3.18;81.44;92650.47;5044027;28;20056;-75
2023/01/17 11:47:10;;;;;;;13.38;1.40;;;;;;;3.05;78.40;92640.91;5046850;28;20037;-75
2023/01/17 11:49:36;;;;;;;1.70;1.17;;;;;;;3.01;83.05;92645.13;5047640;28;20506;-75
2023/01/17 11:52:17;;;;;;;0.95;0.73;;;;;;;3.03;80.68;92643.00;5050449;28;20122;-74
2023/01/17 11:54:48;;;;;;;2.60;1.02;;;;;;;3.01;81.75;92635.50;5048834;28;20037;-74
2023/01/17 11:57:24;;;;;;;1.45;0.88;;;;;;;2.89;79.46;92628.22;5049989;28;20041;-74
2023/01/17 12:00:01;;;;;;;1.65;1.02;;;;;;;2.78;81.25;92626.88;5049667;28;20069;-74
2023/01/17 12:02:42;;;;;;;3.13;1.80;;;;;;;2.66;81.89;92611.81;5046440;28;20041;-73
2023/01/17 12:05:23;;;;;;;5.03;1.05;;;;;;;2.77;86.10;92609.75;5043791;28;20046;-72
2023/01/17 12:08:10;;;;;;;4.18;1.23;;;;;;;2.88;82.38;92602.53;5054446;28;20044;-71
2023/01/17 12:11:10;;;;;;;1.58;1.10;;;;;;;2.72;82.61;92602.09;5051669;28;20597;-77
2023/01/17 12:14:00;;;;;;;1.10;0.93;;;;;;;2.84;84.49;92597.16;5040786;28;20041;-75
2023/01/17 12:16:40;;;;;;;4.05;1.20;;;;;;;2.66;81.96;92598.03;5050434;28;20040;-76
2023/01/17 12:19:27;;;;;;;3.58;1.05;;;;;;;2.77;82.29;92583.78;5042286;28;20037;-75
2023/01/17 12:22:32;;;;;;;1.30;0.88;;;;;;;2.64;78.70;92579.41;5044443;28;20120;-76
2023/01/17 12:25:26;;;;;;;1.05;0.77;;;;;;;2.83;77.78;92572.25;5043213;28;20131;-75
2023/01/17 12:28:14;;;;;;;3.55;0.90;;;;;;;2.93;77.43;92558.25;5050549;28;20582;-76
2023/01/17 12:31:14;;;;;;;3.60;0.98;;;;;;;2.82;74.71;92554.38;5042325;28;20458;-76
2023/01/17 12:33:46;;;;;;;3.65;1.00;;;;;;;2.72;76.13;92544.97;5041003;28;20496;-76
2023/01/17 12:36:21;;;;;;;1.08;0.77;;;;;;;2.80;74.79;92546.84;5048025;28;20042;-75
2023/01/17 12:38:47;;;;;;;;;;;;;;;2.97;75.29;92540.28;5039163;28;20059;-75
2023/01/17 12:41:31;;;;;;;2.13;0.80;;;;;;;2.92;74.51;92528.94;5066659;28;19946;-74
2023/01/17 12:43:59;;;;;;;1.15;0.70;;;;;;;3.07;75.77;92529.63;5047923;28;20044;-77
2023/01/17 12:46:31;;;;;;;2.65;0.60;;;;;;;3.07;76.62;92524.44;5052937;28;20041;-74
2023/01/17 12:49:03;;;;;;;1.58;1.00;;;;;;;2.91;75.15;92517.00;5048941;28;20115;-76
2023/01/17 12:51:37;;;;;;;4.05;0.90;;;;;;;2.87;78.87;92518.63;5047670;28;20059;-75
2023/01/17 12:54:30;;;;;;;1.58;0.88;;;;;;;3.06;77.33;92508.09;5043338;28;20528;-74
2023/01/17 12:57:11;;;;;;;1.40;0.85;;;;;;;2.97;78.79;92501.31;5046822;28;20048;-75
2023/01/17 12:59:51;;;;;;;0.82;0.82;;;;;;;2.74;77.99;92498.69;5050643;28;20094;-75
2023/01/17 13:02:30;;;;;;;5.57;1.02;;;;;;;2.76;80.44;92499.19;5038735;28;20045;-75
2023/01/17 13:05:04;;;;;;;1.67;1.00;;;;;;;2.70;82.12;92495.91;5045631;28;20069;-75
2023/01/17 13:07:39;;;;;;;;;;;;;;;2.66;80.71;92489.00;5056973;28;20036;-73
2023/01/17 13:10:21;;;;;;;3.58;1.30;;;;;;;2.62;83.14;92483.63;5053265;28;19924;-74
2023/01/17 13:12:48;;;;;;;4.80;1.23;;;;;;;2.71;82.63;92481.09;5024797;28;20057;-77